This is the latest recevied weather packets stored in our database for station/object KI7YRV. If no packets are shown the sender has not sent any weather packets the latest 10 day(s).
| Time | Temp. | Humidity | Pressure | Rain* | Wind** | Luminosity | Snow |
|---|---|---|---|---|---|---|---|
| 1777998640 | 6.67° C | 56% | 1016.5 hPa | 0 mm | - | - | - |
| 1777994421 | 5° C | 75% | 1016.9 hPa | 0 mm | - | - | - |
| 1777991425 | 3.89° C | 86% | 1017.1 hPa | 0 mm | - | - | - |
| 1777990850 | 3.89° C | 88% | 1017.1 hPa | 0 mm | - | - | - |
| 1777989064 | 3.33° C | 85% | 1016.9 hPa | 0 mm | - | - | - |
| 1777980016 | 2.78° C | 92% | 1016.7 hPa | 0 mm | - | - | - |
| 1777979425 | 2.78° C | 91% | 1016.5 hPa | 0 mm | - | - | - |
| 1777977636 | 2.22° C | 92% | 1016.5 hPa | 0 mm | - | - | - |
| 1777977020 | 2.22° C | 92% | 1016.5 hPa | 0 mm | - | - | - |
| 1777976419 | 2.22° C | 92% | 1016.6 hPa | 0 mm | - | - | - |
| 1777975215 | 2.22° C | 94% | 1016.5 hPa | 0 mm | - | - | - |
| 1777972239 | 2.78° C | 93% | 1016.7 hPa | 0 mm | - | - | - |
| 1777970433 | 2.78° C | 90% | 1016.8 hPa | 0 mm | - | - | - |
| 1777968627 | 3.33° C | 86% | 1017 hPa | 0 mm | - | - | - |
| 1777967418 | 4.44° C | 78% | 1016.9 hPa | 0 mm | - | - | - |
| 1777964421 | 5° C | 76% | 1016.8 hPa | 0 mm | - | - | - |
| 1777959621 | 6.11° C | 68% | 1016.3 hPa | 0 mm | - | - | - |
| 1777956624 | 7.22° C | 58% | 1016.2 hPa | 0 mm | - | - | - |
| 1777952419 | 8.89° C | 52% | 1014.7 hPa | 0 mm | - | - | - |
| 1777951823 | 8.89° C | 51% | 1014.5 hPa | 0 mm | - | - | - |
| 1777942817 | 12.78° C | 46% | 1012.2 hPa | 0 mm | - | - | - |
| 1777941030 | 15.56° C | 41% | 1011.9 hPa | 0 mm | - | - | - |
| 1777933823 | 18.89° C | 36% | 1011.3 hPa | 0 mm | - | - | - |
| 1777932019 | 19.44° C | 34% | 1011.5 hPa | 0 mm | - | - | - |
| 1777923019 | 18.89° C | 35% | 1012.9 hPa | 0 mm | - | - | - |
* Rain latest hour (hover to see other rain measurements)
** Current wind speed in m/s (hover to see current wind gust speed)